< Typhoon 197509 1975 Season Typhoon 197511 >
Typhoon 197510 (WINNIE)
General InformationTrack Information on Google Maps || Disaster Info.ResourceGoogle EarthGE AnimationAtom FeedGeoJSON
Detalied Best Track (Time Zone = UTC)
Year Month Day Hour Lat. Long. Pressure (hPa) Wind (kt) Class Image Chart
1975 9 8 00 22.5 162.2 1006 0 2 -- Chart
1975 9 8 06 23.1 163.2 1006 0 2 -- Chart
1975 9 8 12 24.0 164.0 1004 0 2 -- Chart
1975 9 8 18 24.8 163.9 1000 0 2 -- Chart
1975 9 9 00 25.6 163.7 992 0 9 -- Chart
1975 9 9 06 26.6 163.5 985 0 9 -- Chart
1975 9 9 12 27.6 163.5 985 0 9 -- Chart
1975 9 9 18 28.7 163.2 980 0 9 -- Chart
1975 9 10 00 30.0 162.6 980 0 9 -- Chart
1975 9 10 06 31.2 162.2 980 0 9 -- Chart
1975 9 10 12 32.4 161.7 980 0 9 -- Chart
1975 9 10 18 33.5 162.0 980 0 9 -- Chart
1975 9 11 00 34.7 161.7 985 0 9 -- Chart
1975 9 11 06 36.3 162.0 985 0 9 -- Chart
1975 9 11 12 38.5 164.0 985 0 9 -- Chart
1975 9 11 18 40.5 166.0 990 0 9 -- Chart
1975 9 12 00 42.0 169.5 990 0 9 -- Chart
1975 9 12 06 43.8 172.5 990 0 9 -- Chart
1975 9 12 12 46.0 176.0 990 0 6 -- Chart
1975 9 12 18 48.3 180.0 990 0 6 -- Chart
Japan Meteorological Agency Best Track Data | Correction Date : 1992-01-27
< Typhoon 197509 1975 Season Typhoon 197511 >

Help